sensor_id;sensor_type;location;lat;lon;timestamp;temperature;humidity
33077;DHT22;38790;51.964;5.924;2022-07-29T00:00:52;16.90;99.90
33077;DHT22;38790;51.964;5.924;2022-07-29T00:03:18;17.00;99.90
33077;DHT22;38790;51.964;5.924;2022-07-29T00:05:44;16.90;99.90
33077;DHT22;38790;51.964;5.924;2022-07-29T00:08:10;16.80;99.90
33077;DHT22;38790;51.964;5.924;2022-07-29T00:10:37;16.90;99.90
33077;DHT22;38790;51.964;5.924;2022-07-29T00:13:03;16.80;99.90
33077;DHT22;38790;51.964;5.924;2022-07-29T00:15:29;16.80;99.90
33077;DHT22;38790;51.964;5.924;2022-07-29T00:17:55;16.80;99.90
33077;DHT22;38790;51.964;5.924;2022-07-29T00:20:21;16.70;99.90
33077;DHT22;38790;51.964;5.924;2022-07-29T00:22:47;16.80;99.90
33077;DHT22;38790;51.964;5.924;2022-07-29T00:25:13;16.80;99.90
33077;DHT22;38790;51.964;5.924;2022-07-29T00:27:39;16.70;99.90
33077;DHT22;38790;51.964;5.924;2022-07-29T00:30:06;16.70;99.90
33077;DHT22;38790;51.964;5.924;2022-07-29T00:32:33;16.60;99.90
33077;DHT22;38790;51.964;5.924;2022-07-29T00:34:59;16.70;99.90
33077;DHT22;38790;51.964;5.924;2022-07-29T00:37:44;16.60;99.90
33077;DHT22;38790;51.964;5.924;2022-07-29T00:40:10;16.60;99.90
33077;DHT22;38790;51.964;5.924;2022-07-29T00:42:47;16.70;99.90
33077;DHT22;38790;51.964;5.924;2022-07-29T00:45:15;16.60;99.90
33077;DHT22;38790;51.964;5.924;2022-07-29T00:47:41;16.60;99.90
33077;DHT22;38790;51.964;5.924;2022-07-29T00:50:09;16.50;99.90
33077;DHT22;38790;51.964;5.924;2022-07-29T00:52:37;16.60;99.90
33077;DHT22;38790;51.964;5.924;2022-07-29T00:55:08;16.50;99.90
33077;DHT22;38790;51.964;5.924;2022-07-29T00:57:35;16.50;99.90
33077;DHT22;38790;51.964;5.924;2022-07-29T01:00:07;16.50;99.90
33077;DHT22;38790;51.964;5.924;2022-07-29T01:02:33;16.50;99.90
33077;DHT22;38790;51.964;5.924;2022-07-29T01:05:00;16.50;99.90
33077;DHT22;38790;51.964;5.924;2022-07-29T01:07:27;16.50;99.90
33077;DHT22;38790;51.964;5.924;2022-07-29T01:09:55;16.40;99.90
33077;DHT22;38790;51.964;5.924;2022-07-29T01:12:24;16.40;99.90
33077;DHT22;38790;51.964;5.924;2022-07-29T01:14:50;16.40;99.90
33077;DHT22;38790;51.964;5.924;2022-07-29T01:20:12;16.40;99.90
33077;DHT22;38790;51.964;5.924;2022-07-29T01:25:36;16.40;99.90
33077;DHT22;38790;51.964;5.924;2022-07-29T01:31:05;16.40;99.90
33077;DHT22;38790;51.964;5.924;2022-07-29T01:33:35;16.40;99.90
33077;DHT22;38790;51.964;5.924;2022-07-29T01:36:23;16.40;99.90
33077;DHT22;38790;51.964;5.924;2022-07-29T01:39:08;16.40;99.90
33077;DHT22;38790;51.964;5.924;2022-07-29T01:41:38;16.40;99.90
33077;DHT22;38790;51.964;5.924;2022-07-29T01:44:12;16.30;99.90
33077;DHT22;38790;51.964;5.924;2022-07-29T01:46:47;16.30;99.90
33077;DHT22;38790;51.964;5.924;2022-07-29T01:49:17;16.30;99.90
33077;DHT22;38790;51.964;5.924;2022-07-29T01:52:08;16.30;99.90
33077;DHT22;38790;51.964;5.924;2022-07-29T01:54:47;16.30;99.90
33077;DHT22;38790;51.964;5.924;2022-07-29T01:57:16;16.40;99.90
33077;DHT22;38790;51.964;5.924;2022-07-29T01:59:46;16.30;99.90
33077;DHT22;38790;51.964;5.924;2022-07-29T02:02:15;16.30;99.90
33077;DHT22;38790;51.964;5.924;2022-07-29T02:04:42;16.20;99.90
33077;DHT22;38790;51.964;5.924;2022-07-29T02:07:15;16.20;99.90
33077;DHT22;38790;51.964;5.924;2022-07-29T02:09:44;16.30;99.90
33077;DHT22;38790;51.964;5.924;2022-07-29T02:12:11;16.40;99.90
33077;DHT22;38790;51.964;5.924;2022-07-29T02:14:44;16.50;99.90
33077;DHT22;38790;51.964;5.924;2022-07-29T02:17:13;16.50;99.90
33077;DHT22;38790;51.964;5.924;2022-07-29T02:19:40;16.40;99.90
33077;DHT22;38790;51.964;5.924;2022-07-29T02:22:08;16.30;99.90
33077;DHT22;38790;51.964;5.924;2022-07-29T02:24:37;16.30;99.90
33077;DHT22;38790;51.964;5.924;2022-07-29T02:27:07;16.30;99.90
33077;DHT22;38790;51.964;5.924;2022-07-29T02:29:34;16.20;99.90
33077;DHT22;38790;51.964;5.924;2022-07-29T02:32:03;16.30;99.90
33077;DHT22;38790;51.964;5.924;2022-07-29T02:34:30;16.30;99.90
33077;DHT22;38790;51.964;5.924;2022-07-29T02:36:58;16.30;99.90
33077;DHT22;38790;51.964;5.924;2022-07-29T02:39:25;16.20;99.90
33077;DHT22;38790;51.964;5.924;2022-07-29T02:41:58;16.20;99.90
33077;DHT22;38790;51.964;5.924;2022-07-29T02:44:25;16.10;99.90
33077;DHT22;38790;51.964;5.924;2022-07-29T02:50:00;16.00;99.90
33077;DHT22;38790;51.964;5.924;2022-07-29T02:52:34;15.90;99.90
33077;DHT22;38790;51.964;5.924;2022-07-29T03:00:42;15.70;99.90
33077;DHT22;38790;51.964;5.924;2022-07-29T03:03:15;15.70;99.90
33077;DHT22;38790;51.964;5.924;2022-07-29T03:05:42;15.60;99.90
33077;DHT22;38790;51.964;5.924;2022-07-29T03:08:10;15.60;99.90
33077;DHT22;38790;51.964;5.924;2022-07-29T03:10:38;15.50;99.90
33077;DHT22;38790;51.964;5.924;2022-07-29T03:13:05;15.50;99.90
33077;DHT22;38790;51.964;5.924;2022-07-29T03:15:33;15.30;99.90
33077;DHT22;38790;51.964;5.924;2022-07-29T03:18:00;15.20;99.90
33077;DHT22;38790;51.964;5.924;2022-07-29T03:20:26;15.00;99.90
33077;DHT22;38790;51.964;5.924;2022-07-29T03:22:52;14.90;99.90
33077;DHT22;38790;51.964;5.924;2022-07-29T03:25:19;14.60;99.90
33077;DHT22;38790;51.964;5.924;2022-07-29T03:27:46;14.50;99.90
33077;DHT22;38790;51.964;5.924;2022-07-29T03:30:13;14.40;99.90
33077;DHT22;38790;51.964;5.924;2022-07-29T03:32:40;14.30;99.90
33077;DHT22;38790;51.964;5.924;2022-07-29T03:35:07;14.20;99.90
33077;DHT22;38790;51.964;5.924;2022-07-29T03:37:34;14.10;99.90
33077;DHT22;38790;51.964;5.924;2022-07-29T03:40:05;14.00;99.90
33077;DHT22;38790;51.964;5.924;2022-07-29T03:42:33;14.00;99.90
33077;DHT22;38790;51.964;5.924;2022-07-29T03:45:05;14.00;99.90
33077;DHT22;38790;51.964;5.924;2022-07-29T03:47:34;14.10;99.90
33077;DHT22;38790;51.964;5.924;2022-07-29T03:50:05;14.20;99.90
33077;DHT22;38790;51.964;5.924;2022-07-29T03:52:31;14.10;99.90
33077;DHT22;38790;51.964;5.924;2022-07-29T03:54:58;14.20;99.90
33077;DHT22;38790;51.964;5.924;2022-07-29T03:57:27;14.20;99.90
33077;DHT22;38790;51.964;5.924;2022-07-29T03:59:54;14.10;99.90
33077;DHT22;38790;51.964;5.924;2022-07-29T04:02:21;14.10;99.90
33077;DHT22;38790;51.964;5.924;2022-07-29T04:04:47;14.20;99.90
33077;DHT22;38790;51.964;5.924;2022-07-29T04:07:14;14.20;99.90
33077;DHT22;38790;51.964;5.924;2022-07-29T04:09:41;14.20;99.90
33077;DHT22;38790;51.964;5.924;2022-07-29T04:12:07;14.30;99.90
33077;DHT22;38790;51.964;5.924;2022-07-29T04:14:34;14.30;99.90
33077;DHT22;38790;51.964;5.924;2022-07-29T04:17:01;14.40;99.90
33077;DHT22;38790;51.964;5.924;2022-07-29T04:19:27;14.40;99.90
33077;DHT22;38790;51.964;5.924;2022-07-29T04:21:54;14.60;99.90
33077;DHT22;38790;51.964;5.924;2022-07-29T04:24:20;14.60;99.90
33077;DHT22;38790;51.964;5.924;2022-07-29T04:26:47;14.50;99.90
33077;DHT22;38790;51.964;5.924;2022-07-29T04:29:13;14.60;99.90
33077;DHT22;38790;51.964;5.924;2022-07-29T04:31:40;14.70;99.90
33077;DHT22;38790;51.964;5.924;2022-07-29T04:34:07;14.80;99.90
33077;DHT22;38790;51.964;5.924;2022-07-29T04:36:33;14.90;99.90
33077;DHT22;38790;51.964;5.924;2022-07-29T04:38:59;14.80;99.90
33077;DHT22;38790;51.964;5.924;2022-07-29T04:41:27;14.70;99.90
33077;DHT22;38790;51.964;5.924;2022-07-29T04:43:54;14.70;99.90
33077;DHT22;38790;51.964;5.924;2022-07-29T04:46:20;14.60;99.90
33077;DHT22;38790;51.964;5.924;2022-07-29T04:48:47;14.50;99.90
33077;DHT22;38790;51.964;5.924;2022-07-29T04:51:14;14.40;99.90
33077;DHT22;38790;51.964;5.924;2022-07-29T04:53:40;14.50;99.90
33077;DHT22;38790;51.964;5.924;2022-07-29T04:56:06;14.50;99.90
33077;DHT22;38790;51.964;5.924;2022-07-29T04:58:36;14.50;99.90
33077;DHT22;38790;51.964;5.924;2022-07-29T05:01:03;14.50;99.90
33077;DHT22;38790;51.964;5.924;2022-07-29T05:03:29;14.60;99.90
33077;DHT22;38790;51.964;5.924;2022-07-29T05:05:55;14.60;99.90
33077;DHT22;38790;51.964;5.924;2022-07-29T05:08:21;14.60;99.90
33077;DHT22;38790;51.964;5.924;2022-07-29T05:10:47;14.60;99.90
33077;DHT22;38790;51.964;5.924;2022-07-29T05:13:13;14.60;99.90
33077;DHT22;38790;51.964;5.924;2022-07-29T05:15:40;14.60;99.90
33077;DHT22;38790;51.964;5.924;2022-07-29T05:18:06;14.60;99.90
33077;DHT22;38790;51.964;5.924;2022-07-29T05:20:32;14.70;99.90
33077;DHT22;38790;51.964;5.924;2022-07-29T05:23:00;14.70;99.90
33077;DHT22;38790;51.964;5.924;2022-07-29T05:25:27;14.70;99.90
33077;DHT22;38790;51.964;5.924;2022-07-29T05:27:54;14.70;99.90
33077;DHT22;38790;51.964;5.924;2022-07-29T05:30:21;14.70;99.90
33077;DHT22;38790;51.964;5.924;2022-07-29T05:32:47;14.70;99.90
33077;DHT22;38790;51.964;5.924;2022-07-29T05:35:14;14.60;99.90
33077;DHT22;38790;51.964;5.924;2022-07-29T05:37:41;14.60;99.90
33077;DHT22;38790;51.964;5.924;2022-07-29T05:40:09;14.60;99.90
33077;DHT22;38790;51.964;5.924;2022-07-29T05:42:36;14.60;99.90
33077;DHT22;38790;51.964;5.924;2022-07-29T05:45:03;14.70;99.90
33077;DHT22;38790;51.964;5.924;2022-07-29T05:47:29;14.60;99.90
33077;DHT22;38790;51.964;5.924;2022-07-29T05:49:55;14.70;99.90
33077;DHT22;38790;51.964;5.924;2022-07-29T05:52:21;14.70;99.90
33077;DHT22;38790;51.964;5.924;2022-07-29T05:54:48;14.80;99.90
33077;DHT22;38790;51.964;5.924;2022-07-29T05:57:22;14.80;99.90
33077;DHT22;38790;51.964;5.924;2022-07-29T05:59:49;14.80;99.90
33077;DHT22;38790;51.964;5.924;2022-07-29T06:02:15;14.90;99.90
33077;DHT22;38790;51.964;5.924;2022-07-29T06:04:42;14.80;99.90
33077;DHT22;38790;51.964;5.924;2022-07-29T06:07:08;14.90;99.90
33077;DHT22;38790;51.964;5.924;2022-07-29T06:09:34;14.90;99.90
33077;DHT22;38790;51.964;5.924;2022-07-29T06:12:00;15.00;99.90
33077;DHT22;38790;51.964;5.924;2022-07-29T06:14:27;15.00;99.90
33077;DHT22;38790;51.964;5.924;2022-07-29T06:16:54;15.00;99.90
33077;DHT22;38790;51.964;5.924;2022-07-29T06:19:20;15.10;99.90
33077;DHT22;38790;51.964;5.924;2022-07-29T06:21:47;15.20;99.90
33077;DHT22;38790;51.964;5.924;2022-07-29T06:24:14;15.30;99.90
33077;DHT22;38790;51.964;5.924;2022-07-29T06:26:41;15.40;99.90
33077;DHT22;38790;51.964;5.924;2022-07-29T06:29:09;15.40;99.90
33077;DHT22;38790;51.964;5.924;2022-07-29T06:31:36;15.40;99.90
33077;DHT22;38790;51.964;5.924;2022-07-29T06:34:03;15.40;99.90
33077;DHT22;38790;51.964;5.924;2022-07-29T06:36:30;15.40;99.90
33077;DHT22;38790;51.964;5.924;2022-07-29T06:38:56;15.50;99.90
33077;DHT22;38790;51.964;5.924;2022-07-29T06:41:22;15.60;99.90
33077;DHT22;38790;51.964;5.924;2022-07-29T06:43:49;15.70;99.90
33077;DHT22;38790;51.964;5.924;2022-07-29T06:46:18;15.80;99.90
33077;DHT22;38790;51.964;5.924;2022-07-29T06:48:45;15.80;99.90
33077;DHT22;38790;51.964;5.924;2022-07-29T06:51:11;16.10;99.90
33077;DHT22;38790;51.964;5.924;2022-07-29T06:53:38;16.80;99.90
33077;DHT22;38790;51.964;5.924;2022-07-29T06:56:05;17.10;99.90
33077;DHT22;38790;51.964;5.924;2022-07-29T06:58:32;17.10;99.90
33077;DHT22;38790;51.964;5.924;2022-07-29T07:01:00;17.00;99.90
33077;DHT22;38790;51.964;5.924;2022-07-29T07:03:26;17.00;99.90
33077;DHT22;38790;51.964;5.924;2022-07-29T07:05:53;17.10;99.90
33077;DHT22;38790;51.964;5.924;2022-07-29T07:08:21;17.20;99.90
33077;DHT22;38790;51.964;5.924;2022-07-29T07:10:48;17.20;99.90
33077;DHT22;38790;51.964;5.924;2022-07-29T07:13:14;17.40;99.90
33077;DHT22;38790;51.964;5.924;2022-07-29T07:15:44;17.40;99.90
33077;DHT22;38790;51.964;5.924;2022-07-29T07:18:10;17.20;99.90
33077;DHT22;38790;51.964;5.924;2022-07-29T07:20:36;17.40;99.90
33077;DHT22;38790;51.964;5.924;2022-07-29T07:23:02;17.50;99.90
33077;DHT22;38790;51.964;5.924;2022-07-29T07:25:28;17.40;99.90
33077;DHT22;38790;51.964;5.924;2022-07-29T07:27:54;17.50;99.90
33077;DHT22;38790;51.964;5.924;2022-07-29T07:30:21;17.50;99.90
33077;DHT22;38790;51.964;5.924;2022-07-29T07:32:47;17.60;99.90
33077;DHT22;38790;51.964;5.924;2022-07-29T07:35:13;17.50;99.90
33077;DHT22;38790;51.964;5.924;2022-07-29T07:37:40;17.50;99.90
33077;DHT22;38790;51.964;5.924;2022-07-29T07:40:07;17.20;99.90
33077;DHT22;38790;51.964;5.924;2022-07-29T07:42:34;17.30;99.90
33077;DHT22;38790;51.964;5.924;2022-07-29T07:45:00;17.30;99.90
33077;DHT22;38790;51.964;5.924;2022-07-29T07:47:26;17.40;99.90
33077;DHT22;38790;51.964;5.924;2022-07-29T07:49:53;17.40;99.90
33077;DHT22;38790;51.964;5.924;2022-07-29T07:52:20;17.20;99.90
33077;DHT22;38790;51.964;5.924;2022-07-29T07:54:48;17.10;99.90
33077;DHT22;38790;51.964;5.924;2022-07-29T07:57:14;17.00;99.90
33077;DHT22;38790;51.964;5.924;2022-07-29T07:59:41;17.00;99.90
33077;DHT22;38790;51.964;5.924;2022-07-29T08:02:08;17.10;99.90
33077;DHT22;38790;51.964;5.924;2022-07-29T08:04:35;17.10;99.90
33077;DHT22;38790;51.964;5.924;2022-07-29T08:07:02;17.10;99.90
33077;DHT22;38790;51.964;5.924;2022-07-29T08:09:28;17.20;99.90
33077;DHT22;38790;51.964;5.924;2022-07-29T08:11:55;17.20;99.90
33077;DHT22;38790;51.964;5.924;2022-07-29T08:14:21;17.30;99.90
33077;DHT22;38790;51.964;5.924;2022-07-29T08:16:47;17.30;99.90
33077;DHT22;38790;51.964;5.924;2022-07-29T08:19:13;17.30;99.90
33077;DHT22;38790;51.964;5.924;2022-07-29T08:21:40;17.40;99.90
33077;DHT22;38790;51.964;5.924;2022-07-29T08:24:07;17.50;99.90
33077;DHT22;38790;51.964;5.924;2022-07-29T08:26:51;17.70;99.90
33077;DHT22;38790;51.964;5.924;2022-07-29T08:29:17;17.80;99.90
33077;DHT22;38790;51.964;5.924;2022-07-29T08:31:43;17.70;99.90
33077;DHT22;38790;51.964;5.924;2022-07-29T08:34:11;17.70;99.90
33077;DHT22;38790;51.964;5.924;2022-07-29T08:36:38;17.60;99.90
33077;DHT22;38790;51.964;5.924;2022-07-29T08:39:04;17.60;99.90
33077;DHT22;38790;51.964;5.924;2022-07-29T08:41:31;17.60;99.90
33077;DHT22;38790;51.964;5.924;2022-07-29T08:43:57;17.70;99.90
33077;DHT22;38790;51.964;5.924;2022-07-29T08:46:23;17.80;99.90
33077;DHT22;38790;51.964;5.924;2022-07-29T08:48:50;17.80;99.90
33077;DHT22;38790;51.964;5.924;2022-07-29T08:51:19;18.00;99.90
33077;DHT22;38790;51.964;5.924;2022-07-29T08:53:48;17.90;99.90
33077;DHT22;38790;51.964;5.924;2022-07-29T08:56:16;17.90;99.90
33077;DHT22;38790;51.964;5.924;2022-07-29T08:58:47;17.90;99.90
33077;DHT22;38790;51.964;5.924;2022-07-29T09:01:17;18.00;99.90
33077;DHT22;38790;51.964;5.924;2022-07-29T09:03:44;18.00;99.90
33077;DHT22;38790;51.964;5.924;2022-07-29T09:06:17;17.90;99.90
33077;DHT22;38790;51.964;5.924;2022-07-29T09:08:44;17.90;99.90
33077;DHT22;38790;51.964;5.924;2022-07-29T09:11:11;17.90;99.90
33077;DHT22;38790;51.964;5.924;2022-07-29T09:13:38;17.90;99.90
33077;DHT22;38790;51.964;5.924;2022-07-29T09:16:05;18.00;99.90
33077;DHT22;38790;51.964;5.924;2022-07-29T09:21:02;18.00;99.90
33077;DHT22;38790;51.964;5.924;2022-07-29T09:24:08;17.90;99.90
33077;DHT22;38790;51.964;5.924;2022-07-29T09:26:45;17.80;99.90
33077;DHT22;38790;51.964;5.924;2022-07-29T09:29:23;17.70;99.90
33077;DHT22;38790;51.964;5.924;2022-07-29T09:31:52;17.70;99.90
33077;DHT22;38790;51.964;5.924;2022-07-29T09:34:26;17.80;99.90
33077;DHT22;38790;51.964;5.924;2022-07-29T09:36:54;17.80;99.90
33077;DHT22;38790;51.964;5.924;2022-07-29T09:39:40;17.80;99.90
33077;DHT22;38790;51.964;5.924;2022-07-29T09:42:12;17.90;99.90
33077;DHT22;38790;51.964;5.924;2022-07-29T09:44:47;17.90;99.90
33077;DHT22;38790;51.964;5.924;2022-07-29T09:47:16;17.90;99.90
33077;DHT22;38790;51.964;5.924;2022-07-29T09:50:00;17.80;99.90
33077;DHT22;38790;51.964;5.924;2022-07-29T09:52:27;17.80;99.90
33077;DHT22;38790;51.964;5.924;2022-07-29T09:55:07;17.90;99.90
33077;DHT22;38790;51.964;5.924;2022-07-29T09:57:34;17.90;99.90
33077;DHT22;38790;51.964;5.924;2022-07-29T10:02:34;18.20;99.90
33077;DHT22;38790;51.964;5.924;2022-07-29T10:05:02;18.40;99.90
33077;DHT22;38790;51.964;5.924;2022-07-29T10:07:48;18.80;99.90
33077;DHT22;38790;51.964;5.924;2022-07-29T10:10:23;19.20;99.90
33077;DHT22;38790;51.964;5.924;2022-07-29T10:12:58;19.70;99.90
33077;DHT22;38790;51.964;5.924;2022-07-29T10:15:26;20.00;99.90
33077;DHT22;38790;51.964;5.924;2022-07-29T10:17:55;20.20;99.90
33077;DHT22;38790;51.964;5.924;2022-07-29T10:20:22;20.50;99.90
33077;DHT22;38790;51.964;5.924;2022-07-29T10:22:50;20.30;99.90
33077;DHT22;38790;51.964;5.924;2022-07-29T10:25:17;20.50;99.90
33077;DHT22;38790;51.964;5.924;2022-07-29T10:27:45;20.50;99.90
33077;DHT22;38790;51.964;5.924;2022-07-29T10:30:12;21.00;99.90
33077;DHT22;38790;51.964;5.924;2022-07-29T10:32:56;21.50;99.90
33077;DHT22;38790;51.964;5.924;2022-07-29T10:41:32;21.00;99.90
33077;DHT22;38790;51.964;5.924;2022-07-29T10:44:04;20.80;99.90
33077;DHT22;38790;51.964;5.924;2022-07-29T10:46:35;20.80;99.90
33077;DHT22;38790;51.964;5.924;2022-07-29T10:59:50;20.80;99.90
33077;DHT22;38790;51.964;5.924;2022-07-29T11:05:06;21.20;99.90
33077;DHT22;38790;51.964;5.924;2022-07-29T11:07:35;21.70;99.90
33077;DHT22;38790;51.964;5.924;2022-07-29T11:10:20;22.30;99.90
33077;DHT22;38790;51.964;5.924;2022-07-29T11:12:47;22.80;99.90
33077;DHT22;38790;51.964;5.924;2022-07-29T11:15:21;22.80;99.90
33077;DHT22;38790;51.964;5.924;2022-07-29T11:25:43;23.30;99.90
33077;DHT22;38790;51.964;5.924;2022-07-29T11:28:18;23.40;99.90
33077;DHT22;38790;51.964;5.924;2022-07-29T11:30:53;23.40;99.90
33077;DHT22;38790;51.964;5.924;2022-07-29T11:33:46;23.20;99.90
33077;DHT22;38790;51.964;5.924;2022-07-29T11:36:14;23.30;99.90
33077;DHT22;38790;51.964;5.924;2022-07-29T11:38:41;23.70;99.90
33077;DHT22;38790;51.964;5.924;2022-07-29T11:41:21;23.70;99.90
33077;DHT22;38790;51.964;5.924;2022-07-29T11:43:56;23.80;99.90
33077;DHT22;38790;51.964;5.924;2022-07-29T11:46:45;23.50;99.90
33077;DHT22;38790;51.964;5.924;2022-07-29T11:49:22;23.60;99.90
33077;DHT22;38790;51.964;5.924;2022-07-29T11:51:57;23.60;99.90
33077;DHT22;38790;51.964;5.924;2022-07-29T11:54:31;23.80;99.90
33077;DHT22;38790;51.964;5.924;2022-07-29T11:56:59;24.20;99.90
33077;DHT22;38790;51.964;5.924;2022-07-29T11:59:25;24.50;99.90
33077;DHT22;38790;51.964;5.924;2022-07-29T12:01:58;24.50;99.90
33077;DHT22;38790;51.964;5.924;2022-07-29T12:04:24;24.10;99.90
33077;DHT22;38790;51.964;5.924;2022-07-29T12:06:53;23.90;99.90
33077;DHT22;38790;51.964;5.924;2022-07-29T12:09:20;23.90;99.90
33077;DHT22;38790;51.964;5.924;2022-07-29T12:11:47;24.10;99.90
33077;DHT22;38790;51.964;5.924;2022-07-29T12:14:29;24.10;99.90
33077;DHT22;38790;51.964;5.924;2022-07-29T12:16:56;24.10;99.90
33077;DHT22;38790;51.964;5.924;2022-07-29T12:19:22;23.90;99.90
33077;DHT22;38790;51.964;5.924;2022-07-29T12:21:55;23.80;99.90
33077;DHT22;38790;51.964;5.924;2022-07-29T12:24:24;23.80;99.90
33077;DHT22;38790;51.964;5.924;2022-07-29T12:29:19;23.70;99.90
33077;DHT22;38790;51.964;5.924;2022-07-29T12:31:46;23.60;99.90
33077;DHT22;38790;51.964;5.924;2022-07-29T12:34:13;23.60;99.90
33077;DHT22;38790;51.964;5.924;2022-07-29T12:36:41;23.90;99.90
33077;DHT22;38790;51.964;5.924;2022-07-29T12:39:09;24.00;99.90
33077;DHT22;38790;51.964;5.924;2022-07-29T12:41:36;24.20;99.90
33077;DHT22;38790;51.964;5.924;2022-07-29T12:44:02;24.70;99.90
33077;DHT22;38790;51.964;5.924;2022-07-29T12:46:28;24.70;99.90
33077;DHT22;38790;51.964;5.924;2022-07-29T12:48:54;24.70;99.90
33077;DHT22;38790;51.964;5.924;2022-07-29T12:51:39;24.60;99.90
33077;DHT22;38790;51.964;5.924;2022-07-29T12:54:13;24.30;99.90
33077;DHT22;38790;51.964;5.924;2022-07-29T12:56:41;24.20;99.90
33077;DHT22;38790;51.964;5.924;2022-07-29T12:59:15;24.20;99.90
33077;DHT22;38790;51.964;5.924;2022-07-29T13:01:42;24.30;99.90
33077;DHT22;38790;51.964;5.924;2022-07-29T13:04:09;24.40;99.90
33077;DHT22;38790;51.964;5.924;2022-07-29T13:06:41;24.90;99.90
33077;DHT22;38790;51.964;5.924;2022-07-29T13:09:20;24.90;99.90
33077;DHT22;38790;51.964;5.924;2022-07-29T13:11:51;24.80;99.90
33077;DHT22;38790;51.964;5.924;2022-07-29T13:17:06;25.10;99.90
33077;DHT22;38790;51.964;5.924;2022-07-29T13:19:37;25.50;99.90
33077;DHT22;38790;51.964;5.924;2022-07-29T13:22:16;25.70;99.90
33077;DHT22;38790;51.964;5.924;2022-07-29T13:24:59;25.90;99.90
33077;DHT22;38790;51.964;5.924;2022-07-29T13:27:30;25.70;99.90
33077;DHT22;38790;51.964;5.924;2022-07-29T13:29:59;25.70;99.90
33077;DHT22;38790;51.964;5.924;2022-07-29T13:32:27;25.90;99.90
33077;DHT22;38790;51.964;5.924;2022-07-29T13:34:54;25.90;99.90
33077;DHT22;38790;51.964;5.924;2022-07-29T13:37:20;25.70;99.90
33077;DHT22;38790;51.964;5.924;2022-07-29T13:39:46;25.70;99.90
33077;DHT22;38790;51.964;5.924;2022-07-29T13:42:13;25.60;99.90
33077;DHT22;38790;51.964;5.924;2022-07-29T13:44:40;25.90;99.90
33077;DHT22;38790;51.964;5.924;2022-07-29T13:47:06;26.20;99.90
33077;DHT22;38790;51.964;5.924;2022-07-29T13:49:34;26.20;99.90
33077;DHT22;38790;51.964;5.924;2022-07-29T13:52:01;26.10;99.90
33077;DHT22;38790;51.964;5.924;2022-07-29T13:54:27;26.30;99.90
33077;DHT22;38790;51.964;5.924;2022-07-29T13:56:53;26.40;99.90
33077;DHT22;38790;51.964;5.924;2022-07-29T13:59:19;26.50;99.90
33077;DHT22;38790;51.964;5.924;2022-07-29T14:01:45;26.60;99.90
33077;DHT22;38790;51.964;5.924;2022-07-29T14:04:11;26.70;99.90
33077;DHT22;38790;51.964;5.924;2022-07-29T14:06:38;26.60;99.90
33077;DHT22;38790;51.964;5.924;2022-07-29T14:09:05;26.80;99.90
33077;DHT22;38790;51.964;5.924;2022-07-29T14:11:37;26.90;99.90
33077;DHT22;38790;51.964;5.924;2022-07-29T14:14:04;26.60;99.90
33077;DHT22;38790;51.964;5.924;2022-07-29T14:16:30;26.30;99.90
33077;DHT22;38790;51.964;5.924;2022-07-29T14:18:56;26.20;99.90
33077;DHT22;38790;51.964;5.924;2022-07-29T14:21:23;25.90;99.90
33077;DHT22;38790;51.964;5.924;2022-07-29T14:23:49;25.80;99.90
33077;DHT22;38790;51.964;5.924;2022-07-29T14:26:15;25.90;99.90
33077;DHT22;38790;51.964;5.924;2022-07-29T14:28:41;26.00;99.90
33077;DHT22;38790;51.964;5.924;2022-07-29T14:31:07;25.90;99.90
33077;DHT22;38790;51.964;5.924;2022-07-29T14:33:33;25.90;99.90
33077;DHT22;38790;51.964;5.924;2022-07-29T14:35:59;25.90;99.90
33077;DHT22;38790;51.964;5.924;2022-07-29T14:38:25;25.80;99.90
33077;DHT22;38790;51.964;5.924;2022-07-29T14:40:51;25.90;99.90
33077;DHT22;38790;51.964;5.924;2022-07-29T14:43:18;25.90;99.90
33077;DHT22;38790;51.964;5.924;2022-07-29T14:45:44;25.80;99.90
33077;DHT22;38790;51.964;5.924;2022-07-29T14:48:10;25.80;99.90
33077;DHT22;38790;51.964;5.924;2022-07-29T14:50:37;25.90;99.90
33077;DHT22;38790;51.964;5.924;2022-07-29T14:53:03;25.90;99.90
33077;DHT22;38790;51.964;5.924;2022-07-29T14:55:29;25.90;99.90
33077;DHT22;38790;51.964;5.924;2022-07-29T14:57:56;25.90;99.90
33077;DHT22;38790;51.964;5.924;2022-07-29T15:00:22;26.10;99.90
33077;DHT22;38790;51.964;5.924;2022-07-29T15:02:48;26.00;99.90
33077;DHT22;38790;51.964;5.924;2022-07-29T15:05:14;25.90;99.90
33077;DHT22;38790;51.964;5.924;2022-07-29T15:07:40;25.70;99.90
33077;DHT22;38790;51.964;5.924;2022-07-29T15:10:07;25.70;99.90
33077;DHT22;38790;51.964;5.924;2022-07-29T15:12:33;25.70;99.90
33077;DHT22;38790;51.964;5.924;2022-07-29T15:14:59;26.00;99.90
33077;DHT22;38790;51.964;5.924;2022-07-29T15:17:25;25.90;99.90
33077;DHT22;38790;51.964;5.924;2022-07-29T15:19:51;25.80;99.90
33077;DHT22;38790;51.964;5.924;2022-07-29T15:22:18;25.70;99.90
33077;DHT22;38790;51.964;5.924;2022-07-29T15:24:44;25.50;99.90
33077;DHT22;38790;51.964;5.924;2022-07-29T15:27:10;25.50;99.90
33077;DHT22;38790;51.964;5.924;2022-07-29T15:29:43;25.60;99.90
33077;DHT22;38790;51.964;5.924;2022-07-29T15:32:10;25.60;99.90
33077;DHT22;38790;51.964;5.924;2022-07-29T15:34:37;25.70;99.90
33077;DHT22;38790;51.964;5.924;2022-07-29T15:37:04;25.70;99.90
33077;DHT22;38790;51.964;5.924;2022-07-29T15:39:30;25.60;99.90
33077;DHT22;38790;51.964;5.924;2022-07-29T15:41:57;25.80;99.90
33077;DHT22;38790;51.964;5.924;2022-07-29T15:44:25;25.60;99.90
33077;DHT22;38790;51.964;5.924;2022-07-29T15:46:51;25.40;99.90
33077;DHT22;38790;51.964;5.924;2022-07-29T15:49:31;25.30;99.90
33077;DHT22;38790;51.964;5.924;2022-07-29T15:51:58;25.40;99.90
33077;DHT22;38790;51.964;5.924;2022-07-29T15:54:25;25.40;99.90
33077;DHT22;38790;51.964;5.924;2022-07-29T15:56:52;25.60;99.90
33077;DHT22;38790;51.964;5.924;2022-07-29T15:59:19;25.70;99.90
33077;DHT22;38790;51.964;5.924;2022-07-29T16:01:45;25.80;99.90
33077;DHT22;38790;51.964;5.924;2022-07-29T16:04:11;25.90;99.90
33077;DHT22;38790;51.964;5.924;2022-07-29T16:06:37;25.70;99.90
33077;DHT22;38790;51.964;5.924;2022-07-29T16:09:04;25.40;99.90
33077;DHT22;38790;51.964;5.924;2022-07-29T16:11:30;25.10;99.90
33077;DHT22;38790;51.964;5.924;2022-07-29T16:13:57;24.80;99.90
33077;DHT22;38790;51.964;5.924;2022-07-29T16:16:23;24.70;99.90
33077;DHT22;38790;51.964;5.924;2022-07-29T16:18:49;24.50;99.90
33077;DHT22;38790;51.964;5.924;2022-07-29T16:21:15;24.50;99.90
33077;DHT22;38790;51.964;5.924;2022-07-29T16:23:41;24.50;99.90
33077;DHT22;38790;51.964;5.924;2022-07-29T16:26:07;24.50;99.90
33077;DHT22;38790;51.964;5.924;2022-07-29T16:28:33;24.50;99.90
33077;DHT22;38790;51.964;5.924;2022-07-29T16:30:59;24.50;99.90
33077;DHT22;38790;51.964;5.924;2022-07-29T16:33:26;24.40;99.90